createdAt,value
2023-01-10T00:00:52.911Z,4.40
2023-01-10T00:03:21.080Z,4.50
2023-01-10T00:05:52.613Z,4.50
2023-01-10T00:08:20.876Z,4.50
2023-01-10T00:10:52.933Z,4.50
2023-01-10T00:13:25.835Z,4.50
2023-01-10T00:15:54.732Z,4.40
2023-01-10T00:18:23.422Z,4.50
2023-01-10T00:20:59.244Z,4.50
2023-01-10T00:23:28.532Z,4.40
2023-01-10T00:25:57.847Z,4.40
2023-01-10T00:28:25.860Z,4.30
2023-01-10T00:30:59.971Z,4.20
2023-01-10T00:33:28.436Z,4.10
2023-01-10T00:35:58.720Z,4.10
2023-01-10T00:38:26.701Z,4.00
2023-01-10T00:40:54.647Z,3.90
2023-01-10T00:43:41.629Z,3.90
2023-01-10T00:46:09.755Z,3.90
2023-01-10T00:48:38.505Z,3.80
2023-01-10T00:51:11.590Z,3.80
2023-01-10T00:53:42.424Z,3.80
2023-01-10T00:56:10.623Z,3.80
2023-01-10T00:58:39.967Z,3.80
2023-01-10T01:01:08.140Z,3.70
2023-01-10T01:03:38.105Z,3.70
2023-01-10T01:06:12.048Z,3.70
2023-01-10T01:08:40.244Z,3.60
2023-01-10T01:11:08.259Z,3.60
2023-01-10T01:13:40.893Z,3.50
2023-01-10T01:16:09.271Z,3.50
2023-01-10T01:18:40.038Z,3.60
2023-01-10T01:21:08.436Z,3.60
2023-01-10T01:23:36.864Z,3.60
2023-01-10T01:26:06.218Z,3.70
2023-01-10T01:28:34.531Z,3.60
2023-01-10T01:31:15.374Z,3.60
2023-01-10T01:33:43.586Z,3.60
2023-01-10T01:36:13.939Z,3.60
2023-01-10T01:38:42.570Z,3.80
2023-01-10T01:41:26.725Z,3.80
2023-01-10T01:44:01.975Z,3.80
2023-01-10T01:46:33.732Z,3.80
2023-01-10T01:49:02.793Z,3.90
2023-01-10T01:51:32.722Z,4.00
2023-01-10T01:54:05.669Z,4.00
2023-01-10T01:56:39.452Z,4.00
2023-01-10T01:59:11.477Z,4.10
2023-01-10T02:01:43.098Z,4.10
2023-01-10T02:04:14.514Z,4.10
2023-01-10T02:06:42.989Z,4.10
2023-01-10T02:09:27.805Z,4.10
2023-01-10T02:11:56.759Z,4.10
2023-01-10T02:14:25.940Z,4.10
2023-01-10T02:16:55.319Z,4.10
2023-01-10T02:19:30.686Z,4.00
2023-01-10T02:22:27.214Z,4.00
2023-01-10T02:25:20.780Z,4.00
2023-01-10T02:28:19.620Z,4.00
2023-01-10T02:31:07.631Z,3.90
2023-01-10T02:33:42.740Z,3.90
2023-01-10T02:36:24.360Z,3.80
2023-01-10T02:39:02.831Z,3.80
2023-01-10T02:41:39.159Z,3.70
2023-01-10T02:44:13.113Z,3.70
2023-01-10T02:46:42.510Z,3.60
2023-01-10T02:49:11.800Z,3.60
2023-01-10T02:51:39.779Z,3.50
2023-01-10T02:54:13.203Z,3.40
2023-01-10T02:57:09.737Z,3.50
2023-01-10T03:00:09.140Z,3.50
2023-01-10T03:03:14.566Z,3.60
2023-01-10T03:05:56.691Z,3.50
2023-01-10T03:08:33.898Z,3.50
2023-01-10T03:11:04.513Z,3.50
2023-01-10T03:13:38.846Z,3.40
2023-01-10T03:16:13.033Z,3.40
2023-01-10T03:18:46.105Z,3.40
2023-01-10T03:21:16.947Z,3.50
2023-01-10T03:23:46.711Z,3.50
2023-01-10T03:26:17.548Z,3.60
2023-01-10T03:28:52.195Z,3.60
2023-01-10T03:31:27.076Z,3.60
2023-01-10T03:33:55.733Z,3.70
2023-01-10T03:36:32.165Z,3.80
2023-01-10T03:39:09.763Z,3.90
2023-01-10T03:41:41.391Z,4.00
2023-01-10T03:44:34.784Z,4.00
2023-01-10T03:47:09.064Z,4.10
2023-01-10T03:49:40.448Z,4.10
2023-01-10T03:52:13.072Z,4.10
2023-01-10T03:54:44.165Z,4.10
2023-01-10T03:57:21.587Z,4.10
2023-01-10T03:59:53.290Z,4.10
2023-01-10T04:02:23.347Z,4.10
2023-01-10T04:04:51.283Z,4.20
2023-01-10T04:07:20.564Z,4.20
2023-01-10T04:09:48.554Z,4.20
2023-01-10T04:12:16.805Z,4.20
2023-01-10T04:14:46.710Z,4.20
2023-01-10T04:17:17.292Z,4.30
2023-01-10T04:19:45.885Z,4.20
2023-01-10T04:22:21.114Z,4.20
2023-01-10T04:24:52.260Z,4.20
2023-01-10T04:27:25.500Z,4.10
2023-01-10T04:29:53.526Z,4.10
2023-01-10T04:32:23.434Z,4.00
2023-01-10T04:34:51.403Z,3.90
2023-01-10T04:37:21.229Z,3.80
2023-01-10T04:39:50.602Z,3.90
2023-01-10T04:42:18.669Z,3.80
2023-01-10T04:44:46.617Z,3.80
2023-01-10T04:47:14.492Z,3.80
2023-01-10T04:49:42.607Z,3.80
2023-01-10T04:52:11.581Z,3.90
2023-01-10T04:54:39.527Z,3.90
2023-01-10T04:57:08.761Z,3.90
2023-01-10T04:59:38.746Z,3.90
2023-01-10T05:02:06.831Z,3.90
2023-01-10T05:04:34.963Z,4.00
2023-01-10T05:07:08.966Z,4.10
2023-01-10T05:09:40.215Z,4.20
2023-01-10T05:12:09.591Z,4.20
2023-01-10T05:14:37.622Z,4.30
2023-01-10T05:17:05.606Z,4.30
2023-01-10T05:19:38.034Z,4.40
2023-01-10T05:22:09.150Z,4.40
2023-01-10T05:24:37.086Z,4.40
2023-01-10T05:27:05.062Z,4.30
2023-01-10T05:29:35.401Z,4.30
2023-01-10T05:32:03.426Z,4.30
2023-01-10T05:34:31.427Z,4.20
2023-01-10T05:36:59.386Z,4.20
2023-01-10T05:39:27.543Z,4.20
2023-01-10T05:41:55.523Z,4.20
2023-01-10T05:44:25.474Z,4.10
2023-01-10T05:46:54.872Z,4.10
2023-01-10T05:49:22.872Z,4.00
2023-01-10T05:51:50.899Z,3.90
2023-01-10T05:54:21.634Z,3.90
2023-01-10T05:56:49.606Z,3.90
2023-01-10T05:59:28.060Z,3.90
2023-01-10T06:01:59.469Z,4.10
2023-01-10T06:04:27.574Z,4.10
2023-01-10T06:06:58.496Z,4.20
2023-01-10T06:09:26.563Z,4.10
2023-01-10T06:11:54.827Z,4.20
2023-01-10T06:14:24.704Z,4.20
2023-01-10T06:16:52.641Z,4.10
2023-01-10T06:19:21.960Z,4.10
2023-01-10T06:21:51.781Z,4.00
2023-01-10T06:24:20.121Z,4.00
2023-01-10T06:26:48.100Z,3.90
2023-01-10T06:29:22.662Z,3.90
2023-01-10T06:31:50.966Z,3.80
2023-01-10T06:34:19.185Z,3.80
2023-01-10T06:36:48.568Z,3.70
2023-01-10T06:39:16.543Z,3.60
2023-01-10T06:41:46.397Z,3.60
2023-01-10T06:44:17.478Z,3.60
2023-01-10T06:46:45.498Z,3.60
2023-01-10T06:49:18.173Z,3.60
2023-01-10T06:51:46.196Z,3.60
2023-01-10T06:54:15.531Z,3.60
2023-01-10T06:56:43.492Z,3.60
2023-01-10T06:59:13.612Z,3.50
2023-01-10T07:01:41.712Z,3.50
2023-01-10T07:04:10.569Z,3.30
2023-01-10T07:06:38.717Z,3.30
2023-01-10T07:09:09.463Z,3.20
2023-01-10T07:11:38.730Z,3.20
2023-01-10T07:14:09.744Z,3.10
2023-01-10T07:16:42.512Z,3.00
2023-01-10T07:19:13.402Z,2.90
2023-01-10T07:21:41.605Z,2.90
2023-01-10T07:24:10.561Z,3.00
2023-01-10T07:26:39.897Z,3.00
2023-01-10T07:29:07.915Z,3.10
2023-01-10T07:31:36.001Z,3.20
2023-01-10T07:34:04.082Z,3.30
2023-01-10T07:36:32.081Z,3.30
2023-01-10T07:39:00.147Z,3.30
2023-01-10T07:41:33.020Z,3.20
2023-01-10T07:44:02.395Z,3.20
2023-01-10T07:46:30.456Z,3.20
2023-01-10T07:48:59.881Z,3.20
2023-01-10T07:51:30.873Z,3.30
2023-01-10T07:53:58.905Z,3.50
2023-01-10T07:56:28.576Z,3.60
2023-01-10T07:59:01.221Z,3.80
2023-01-10T08:01:30.874Z,3.90
2023-01-10T08:04:01.572Z,4.00
2023-01-10T08:06:29.632Z,4.10
2023-01-10T08:09:00.938Z,4.20
2023-01-10T08:11:28.852Z,4.20
2023-01-10T08:13:58.219Z,4.30
2023-01-10T08:16:27.787Z,4.40
2023-01-10T08:19:00.177Z,4.40
2023-01-10T08:21:32.209Z,4.50
2023-01-10T08:24:00.567Z,4.50
2023-01-10T08:26:29.058Z,4.60
2023-01-10T08:29:06.024Z,4.70
2023-01-10T08:31:34.728Z,4.80
2023-01-10T08:34:04.891Z,4.80
2023-01-10T08:36:38.271Z,4.90
2023-01-10T08:39:07.187Z,5.00
2023-01-10T08:41:41.193Z,5.00
2023-01-10T08:44:15.556Z,5.00
2023-01-10T08:46:46.072Z,5.00
2023-01-10T08:49:15.799Z,5.20
2023-01-10T08:51:44.797Z,5.20
2023-01-10T08:54:12.915Z,5.20
2023-01-10T08:56:41.156Z,5.20
2023-01-10T08:59:09.460Z,5.20
2023-01-10T09:01:37.534Z,5.30
2023-01-10T09:04:05.552Z,5.30
2023-01-10T09:06:34.852Z,5.30
2023-01-10T09:09:02.774Z,5.30
2023-01-10T09:11:30.890Z,5.40
2023-01-10T09:13:58.904Z,5.40
2023-01-10T09:16:26.895Z,5.40
2023-01-10T09:18:55.755Z,5.60
2023-01-10T09:21:23.765Z,5.60
2023-01-10T09:23:53.076Z,5.60
2023-01-10T09:26:21.075Z,5.60
2023-01-10T09:28:49.848Z,5.80
2023-01-10T09:31:18.328Z,5.80
2023-01-10T09:33:47.593Z,5.70
2023-01-10T09:36:16.035Z,5.60
2023-01-10T09:38:44.253Z,5.40
2023-01-10T09:41:31.746Z,5.30
2023-01-10T09:44:05.806Z,5.30
2023-01-10T09:46:43.524Z,5.30
2023-01-10T09:49:23.121Z,5.30
2023-01-10T09:51:53.245Z,5.40
2023-01-10T09:54:27.529Z,5.60
2023-01-10T09:56:59.358Z,5.70
2023-01-10T09:59:32.331Z,5.80
2023-01-10T10:02:05.570Z,5.80
2023-01-10T10:04:37.148Z,5.80
2023-01-10T10:07:12.078Z,5.90
2023-01-10T10:09:40.129Z,6.00
2023-01-10T10:12:24.086Z,6.10
2023-01-10T10:15:03.596Z,6.30
2023-01-10T10:17:40.704Z,6.10
2023-01-10T10:20:38.511Z,6.20
2023-01-10T10:23:18.427Z,6.00
2023-01-10T10:25:56.172Z,6.10
2023-01-10T10:28:55.563Z,6.10
2023-01-10T10:31:34.053Z,6.30
2023-01-10T10:34:10.559Z,6.40
2023-01-10T10:36:43.564Z,6.50
2023-01-10T10:39:17.210Z,6.50
2023-01-10T10:41:47.276Z,6.50
2023-01-10T10:44:32.410Z,6.40
2023-01-10T10:47:01.453Z,6.60
2023-01-10T10:49:38.690Z,6.50
2023-01-10T10:52:15.238Z,6.50
2023-01-10T10:54:43.273Z,6.50
2023-01-10T10:57:12.999Z,6.60
2023-01-10T10:59:45.677Z,6.50
2023-01-10T11:02:23.697Z,6.50
2023-01-10T11:04:53.254Z,6.50
2023-01-10T11:07:21.750Z,6.60
2023-01-10T11:09:54.041Z,6.60
2023-01-10T11:12:27.321Z,6.70
2023-01-10T11:14:56.614Z,6.60
2023-01-10T11:17:26.683Z,6.60
2023-01-10T11:20:01.178Z,6.60
2023-01-10T11:22:31.392Z,6.60
2023-01-10T11:25:02.293Z,6.70
2023-01-10T11:27:33.031Z,6.70
2023-01-10T11:30:05.033Z,6.70
2023-01-10T11:32:36.599Z,6.70
2023-01-10T11:35:10.750Z,6.70
2023-01-10T11:37:38.608Z,6.70
2023-01-10T11:40:23.292Z,6.70
2023-01-10T11:42:51.908Z,6.80
2023-01-10T11:45:29.795Z,6.70
2023-01-10T11:48:01.004Z,6.80
2023-01-10T11:50:32.495Z,6.70
2023-01-10T11:53:00.709Z,7.00
2023-01-10T11:55:31.971Z,7.10
2023-01-10T11:58:05.044Z,7.10
2023-01-10T12:00:36.288Z,7.20
2023-01-10T12:03:15.647Z,7.30
2023-01-10T12:05:51.920Z,7.30
2023-01-10T12:08:30.550Z,7.20
2023-01-10T12:11:05.452Z,7.10
2023-01-10T12:13:45.922Z,7.10
2023-01-10T12:16:22.548Z,7.20
2023-01-10T12:18:52.197Z,7.30
2023-01-10T12:21:27.857Z,7.20
2023-01-10T12:23:58.566Z,7.10
2023-01-10T12:26:28.404Z,7.10
2023-01-10T12:29:00.948Z,7.10
2023-01-10T12:31:32.076Z,7.10
2023-01-10T12:34:10.697Z,7.10
2023-01-10T12:36:50.360Z,7.10
2023-01-10T12:39:23.205Z,7.10
2023-01-10T12:42:18.233Z,7.10
2023-01-10T12:44:48.633Z,7.00
2023-01-10T12:47:26.033Z,7.20
2023-01-10T12:49:58.305Z,7.10
2023-01-10T12:52:35.079Z,7.10
2023-01-10T12:55:04.198Z,7.20
2023-01-10T12:57:37.165Z,7.00
2023-01-10T13:00:08.581Z,7.10
2023-01-10T13:02:44.868Z,7.20
2023-01-10T13:05:20.505Z,7.20
2023-01-10T13:07:53.116Z,7.20
2023-01-10T13:10:24.609Z,7.10
2023-01-10T13:12:58.937Z,7.00
2023-01-10T13:15:31.837Z,7.00
2023-01-10T13:18:04.977Z,7.10
2023-01-10T13:20:45.537Z,7.10
2023-01-10T13:23:26.459Z,7.10
2023-01-10T13:26:01.571Z,7.00
2023-01-10T13:28:31.521Z,6.90
2023-01-10T13:31:01.981Z,7.10
2023-01-10T13:33:32.269Z,7.00
2023-01-10T13:36:17.910Z,6.80
2023-01-10T13:38:51.001Z,6.70
2023-01-10T13:41:36.627Z,6.70
2023-01-10T13:44:17.115Z,6.70
2023-01-10T13:46:50.017Z,6.70
2023-01-10T13:49:47.872Z,6.60
2023-01-10T13:52:40.019Z,6.70
2023-01-10T13:55:35.123Z,6.70
2023-01-10T13:58:05.316Z,6.60
2023-01-10T14:01:06.353Z,6.60
2023-01-10T14:03:58.609Z,6.70
2023-01-10T14:06:53.067Z,6.60
2023-01-10T14:09:43.425Z,6.60
2023-01-10T14:12:23.185Z,6.60
2023-01-10T14:14:58.065Z,6.60
2023-01-10T14:17:29.131Z,6.70
2023-01-10T14:20:17.330Z,6.70
2023-01-10T14:23:03.565Z,6.70
2023-01-10T14:25:36.952Z,6.60
2023-01-10T14:28:17.117Z,6.70
2023-01-10T14:30:53.094Z,6.80
2023-01-10T14:33:23.648Z,6.80
2023-01-10T14:35:55.573Z,6.80
2023-01-10T14:38:27.021Z,6.70
2023-01-10T14:41:01.735Z,6.70
2023-01-10T14:43:39.419Z,6.70
2023-01-10T14:46:13.459Z,6.70
2023-01-10T14:48:49.153Z,6.70
2023-01-10T14:51:22.344Z,6.60
2023-01-10T14:53:58.237Z,6.60
2023-01-10T14:56:28.578Z,6.60
2023-01-10T14:58:58.069Z,6.50
2023-01-10T15:01:29.545Z,6.50
2023-01-10T15:03:59.359Z,6.50
2023-01-10T15:06:27.578Z,6.50
2023-01-10T15:09:03.682Z,6.50
2023-01-10T15:11:32.854Z,6.50
2023-01-10T15:14:08.319Z,6.40
2023-01-10T15:16:38.863Z,6.40
2023-01-10T15:19:07.023Z,6.40
2023-01-10T15:21:34.996Z,6.40
2023-01-10T15:24:26.053Z,6.30
2023-01-10T15:26:54.391Z,6.40
2023-01-10T15:29:25.462Z,6.30
2023-01-10T15:31:57.361Z,6.30
2023-01-10T15:34:30.409Z,6.30
2023-01-10T15:37:01.414Z,6.30
2023-01-10T15:39:32.263Z,6.20
2023-01-10T15:42:02.488Z,6.20
2023-01-10T15:44:41.093Z,6.10
2023-01-10T15:47:36.854Z,6.10
2023-01-10T15:50:19.632Z,6.20
2023-01-10T15:52:52.842Z,6.20
2023-01-10T15:55:38.812Z,6.20
2023-01-10T15:58:07.517Z,6.10
2023-01-10T16:00:36.842Z,6.10
2023-01-10T16:03:18.842Z,6.10
2023-01-10T16:05:54.623Z,6.10
2023-01-10T16:08:26.772Z,6.10
2023-01-10T16:10:57.153Z,6.10
2023-01-10T16:13:27.547Z,6.10
2023-01-10T16:16:03.163Z,6.00
2023-01-10T16:18:33.197Z,6.00
2023-01-10T16:21:04.278Z,6.00
2023-01-10T16:23:35.513Z,5.90
2023-01-10T16:26:10.132Z,6.00
2023-01-10T16:28:38.169Z,6.00
2023-01-10T16:31:12.930Z,5.90
2023-01-10T16:33:41.309Z,5.90
2023-01-10T16:36:16.017Z,5.90
2023-01-10T16:38:46.106Z,5.90
2023-01-10T16:41:32.848Z,5.80
2023-01-10T16:44:02.848Z,5.90
2023-01-10T16:46:32.217Z,5.80
2023-01-10T16:49:00.879Z,5.80
2023-01-10T16:51:34.173Z,5.80
2023-01-10T16:54:06.811Z,5.80
2023-01-10T16:56:34.819Z,5.80
2023-01-10T16:59:06.389Z,5.80
2023-01-10T17:01:43.511Z,5.70
2023-01-10T17:04:13.982Z,5.80
2023-01-10T17:06:41.896Z,5.70
2023-01-10T17:09:25.153Z,5.70
2023-01-10T17:12:01.722Z,5.70
2023-01-10T17:14:35.069Z,5.70
2023-01-10T17:17:08.351Z,5.70
2023-01-10T17:19:41.371Z,5.70
2023-01-10T17:22:09.408Z,5.70
2023-01-10T17:24:37.403Z,5.70
2023-01-10T17:27:05.565Z,5.70
2023-01-10T17:29:34.822Z,5.70
2023-01-10T17:32:04.360Z,5.70
2023-01-10T17:34:40.148Z,5.70
2023-01-10T17:37:08.219Z,5.70
2023-01-10T17:39:37.791Z,5.70
2023-01-10T17:42:08.316Z,5.70
2023-01-10T17:44:36.382Z,5.70
2023-01-10T17:47:05.775Z,5.80
2023-01-10T17:49:33.801Z,5.80
2023-01-10T17:52:01.753Z,5.80
2023-01-10T17:54:30.068Z,5.70
2023-01-10T17:56:58.041Z,5.70
2023-01-10T17:59:26.509Z,5.60
2023-01-10T18:01:54.759Z,5.70
2023-01-10T18:04:24.285Z,5.60
2023-01-10T18:06:52.644Z,5.60
2023-01-10T18:09:21.115Z,5.60
2023-01-10T18:11:49.811Z,5.60
2023-01-10T18:14:35.278Z,5.70
2023-01-10T18:17:03.448Z,5.70
2023-01-10T18:19:33.060Z,5.70
2023-01-10T18:22:01.954Z,5.70
2023-01-10T18:24:32.089Z,5.70
2023-01-10T18:27:00.035Z,5.60
2023-01-10T18:29:27.930Z,5.60
2023-01-10T18:31:55.803Z,5.50
2023-01-10T18:34:23.882Z,5.50
2023-01-10T18:36:53.209Z,5.50
2023-01-10T18:39:21.767Z,5.50
2023-01-10T18:41:52.257Z,5.50
2023-01-10T18:44:20.392Z,5.40
2023-01-10T18:46:48.331Z,5.40
2023-01-10T18:49:17.895Z,5.40
2023-01-10T18:51:47.063Z,5.40
2023-01-10T18:54:16.454Z,5.30
2023-01-10T18:56:44.365Z,5.30
2023-01-10T18:59:12.278Z,5.30
2023-01-10T19:01:40.556Z,5.20
2023-01-10T19:04:11.250Z,5.20
2023-01-10T19:06:39.318Z,5.10
2023-01-10T19:09:07.503Z,5.00
2023-01-10T19:11:36.755Z,5.00
2023-01-10T19:14:05.296Z,5.00
2023-01-10T19:16:33.569Z,5.00
2023-01-10T19:19:03.459Z,5.00
2023-01-10T19:21:33.601Z,4.90
2023-01-10T19:24:03.631Z,4.90
2023-01-10T19:26:31.759Z,5.00
2023-01-10T19:29:02.975Z,4.90
2023-01-10T19:31:31.129Z,4.80
2023-01-10T19:34:00.646Z,4.90
2023-01-10T19:36:34.567Z,4.80
2023-01-10T19:39:03.153Z,4.70
2023-01-10T19:41:31.492Z,4.70
2023-01-10T19:44:02.838Z,4.70
2023-01-10T19:46:34.032Z,4.70
2023-01-10T19:49:04.604Z,4.70
2023-01-10T19:51:32.570Z,4.70
2023-01-10T19:54:00.608Z,4.70
2023-01-10T19:56:28.779Z,4.70
2023-01-10T19:58:56.824Z,4.70
2023-01-10T20:01:28.290Z,4.70
2023-01-10T20:03:58.309Z,4.80
2023-01-10T20:06:29.025Z,4.80
2023-01-10T20:08:57.575Z,4.80
2023-01-10T20:11:27.415Z,4.80
2023-01-10T20:13:55.468Z,4.80
2023-01-10T20:16:27.358Z,4.80
2023-01-10T20:18:58.155Z,4.80
2023-01-10T20:21:26.650Z,4.80
2023-01-10T20:23:54.599Z,4.80
2023-01-10T20:26:27.078Z,4.80
2023-01-10T20:28:56.631Z,4.80
2023-01-10T20:31:27.006Z,4.80
2023-01-10T20:33:55.097Z,4.90
2023-01-10T20:36:27.667Z,4.80
2023-01-10T20:38:56.122Z,4.90
2023-01-10T20:41:26.072Z,4.90
2023-01-10T20:43:55.209Z,4.90
2023-01-10T20:46:26.690Z,4.90
2023-01-10T20:48:57.226Z,4.90
2023-01-10T20:51:27.293Z,4.80
2023-01-10T20:53:59.232Z,4.80
2023-01-10T20:56:29.405Z,4.90
2023-01-10T20:58:57.881Z,4.90
2023-01-10T21:01:35.661Z,4.80
2023-01-10T21:04:10.661Z,4.90
2023-01-10T21:06:38.874Z,4.90
2023-01-10T21:09:07.587Z,4.90
2023-01-10T21:11:47.723Z,4.80
2023-01-10T21:14:35.087Z,4.80
2023-01-10T21:17:03.258Z,4.80
2023-01-10T21:19:32.641Z,4.80
2023-01-10T21:22:00.638Z,4.80
2023-01-10T21:24:28.576Z,4.90
2023-01-10T21:26:56.563Z,4.80
2023-01-10T21:29:24.653Z,4.80
2023-01-10T21:31:53.264Z,4.80
2023-01-10T21:34:21.513Z,4.80
2023-01-10T21:36:51.316Z,4.80
2023-01-10T21:39:19.753Z,4.80
2023-01-10T21:42:10.959Z,4.80
2023-01-10T21:44:40.037Z,4.80
2023-01-10T21:47:08.650Z,4.80
2023-01-10T21:49:36.915Z,4.90
2023-01-10T21:52:06.544Z,4.80
2023-01-10T21:54:35.442Z,4.80
2023-01-10T21:57:03.749Z,4.80
2023-01-10T21:59:31.672Z,4.80
2023-01-10T22:01:59.626Z,4.80
2023-01-10T22:04:27.926Z,4.80
2023-01-10T22:06:55.925Z,4.80
2023-01-10T22:09:28.064Z,4.80
2023-01-10T22:11:56.343Z,4.90
2023-01-10T22:14:27.462Z,4.80
2023-01-10T22:16:55.719Z,4.90
2023-01-10T22:19:23.815Z,4.90
2023-01-10T22:21:52.184Z,4.90
2023-01-10T22:24:20.340Z,4.90
2023-01-10T22:26:49.806Z,4.90
2023-01-10T22:29:19.917Z,4.90
2023-01-10T22:31:48.058Z,4.90
2023-01-10T22:34:16.347Z,4.90
2023-01-10T22:36:44.510Z,4.90
2023-01-10T22:39:12.637Z,4.90
2023-01-10T22:41:40.625Z,4.90
2023-01-10T22:44:18.605Z,5.00
2023-01-10T22:46:46.786Z,4.90
2023-01-10T22:49:16.718Z,4.90
2023-01-10T22:51:48.008Z,5.00
2023-01-10T22:54:16.346Z,5.00
2023-01-10T22:56:44.371Z,5.00
2023-01-10T22:59:14.292Z,5.00
2023-01-10T23:01:42.376Z,5.00
2023-01-10T23:04:10.549Z,5.00
2023-01-10T23:06:38.474Z,5.00
2023-01-10T23:09:06.433Z,5.00
2023-01-10T23:11:34.317Z,5.00
2023-01-10T23:14:03.955Z,5.00
2023-01-10T23:16:33.302Z,5.00
2023-01-10T23:19:01.527Z,5.00
2023-01-10T23:21:30.021Z,5.00
2023-01-10T23:23:58.397Z,5.00
2023-01-10T23:26:26.415Z,5.00
2023-01-10T23:28:57.517Z,5.00
2023-01-10T23:31:29.305Z,5.10
2023-01-10T23:33:59.162Z,5.10
2023-01-10T23:36:27.318Z,5.00
2023-01-10T23:39:00.879Z,5.00
2023-01-10T23:41:28.840Z,5.00
2023-01-10T23:43:56.832Z,5.10
2023-01-10T23:46:24.951Z,5.10
2023-01-10T23:48:53.079Z,5.10
2023-01-10T23:51:24.539Z,5.10
2023-01-10T23:53:52.466Z,5.10
2023-01-10T23:56:20.827Z,5.10
2023-01-10T23:58:52.376Z,5.10
